createdAt,value
2018-03-25T00:00:32.737Z,53.30
2018-03-25T00:01:07.149Z,55.83
2018-03-25T00:01:41.067Z,59.38
2018-03-25T00:02:14.934Z,51.95
2018-03-25T00:02:49.029Z,55.65
2018-03-25T00:03:23.336Z,51.05
2018-03-25T00:03:57.551Z,54.70
2018-03-25T00:04:31.426Z,57.95
2018-03-25T00:05:05.313Z,54.42
2018-03-25T00:05:39.184Z,67.32
2018-03-25T00:06:13.325Z,61.95
2018-03-25T00:06:47.258Z,57.95
2018-03-25T00:07:21.121Z,53.72
2018-03-25T00:07:54.996Z,53.75
2018-03-25T00:08:29.009Z,54.13
2018-03-25T00:09:02.871Z,55.10
2018-03-25T00:09:36.742Z,55.20
2018-03-25T00:10:11.622Z,61.88
2018-03-25T00:10:45.716Z,56.10
2018-03-25T00:11:19.586Z,51.90
2018-03-25T00:11:53.463Z,55.92
2018-03-25T00:12:27.402Z,58.00
2018-03-25T00:13:01.260Z,53.55
2018-03-25T00:13:35.118Z,55.58
2018-03-25T00:14:09.085Z,57.10
2018-03-25T00:14:43.107Z,53.80
2018-03-25T00:15:16.964Z,56.60
2018-03-25T00:15:51.078Z,53.80
2018-03-25T00:16:24.953Z,55.25
2018-03-25T00:16:58.883Z,53.60
2018-03-25T00:17:32.763Z,56.00
2018-03-25T00:18:06.777Z,52.05
2018-03-25T00:18:40.640Z,52.22
2018-03-25T00:19:14.649Z,56.60
2018-03-25T00:19:48.514Z,52.03
2018-03-25T00:20:22.377Z,57.47
2018-03-25T00:20:56.443Z,60.42
2018-03-25T00:21:30.449Z,57.45
2018-03-25T00:22:04.320Z,54.85
2018-03-25T00:22:38.322Z,59.03
2018-03-25T00:23:12.181Z,58.33
2018-03-25T00:23:46.277Z,57.83
2018-03-25T00:24:20.428Z,58.80
2018-03-25T00:24:54.285Z,56.25
2018-03-25T00:25:28.150Z,51.03
2018-03-25T00:26:02.114Z,56.33
2018-03-25T00:26:35.975Z,54.72
2018-03-25T00:27:09.854Z,59.38
2018-03-25T00:27:43.786Z,57.28
2018-03-25T00:28:17.758Z,58.75
2018-03-25T00:28:51.692Z,56.15
2018-03-25T00:29:25.541Z,54.53
2018-03-25T00:29:59.474Z,53.63
2018-03-25T00:30:33.351Z,59.63
2018-03-25T00:31:07.255Z,57.30
2018-03-25T00:31:41.377Z,60.45
2018-03-25T00:32:15.244Z,58.00
2018-03-25T00:32:49.117Z,56.10
2018-03-25T00:33:23.086Z,57.47
2018-03-25T00:33:57.059Z,55.67
2018-03-25T00:34:30.936Z,58.83
2018-03-25T00:35:04.809Z,59.63
2018-03-25T00:35:38.743Z,59.50
2018-03-25T00:36:12.637Z,61.40
2018-03-25T00:36:46.524Z,56.92
2018-03-25T00:37:20.377Z,62.17
2018-03-25T00:37:54.245Z,56.80
2018-03-25T00:38:28.133Z,57.70
2018-03-25T00:39:01.989Z,56.67
2018-03-25T00:39:36.121Z,56.25
2018-03-25T00:40:10.126Z,58.95
2018-03-25T00:40:44.230Z,58.97
2018-03-25T00:41:18.324Z,58.17
2018-03-25T00:41:52.314Z,61.63
2018-03-25T00:42:26.226Z,60.47
2018-03-25T00:43:00.114Z,60.83
2018-03-25T00:43:33.982Z,53.20
2018-03-25T00:44:08.090Z,54.55
2018-03-25T00:44:41.955Z,57.65
2018-03-25T00:45:15.988Z,57.30
2018-03-25T00:45:50.009Z,63.17
2018-03-25T00:46:23.994Z,56.78
2018-03-25T00:46:57.857Z,54.35
2018-03-25T00:47:31.876Z,58.05
2018-03-25T00:48:05.828Z,52.15
2018-03-25T00:48:39.642Z,57.55
2018-03-25T00:49:13.687Z,68.90
2018-03-25T00:49:47.555Z,60.85
2018-03-25T00:50:21.417Z,59.60
2018-03-25T00:50:55.271Z,60.60
2018-03-25T00:51:29.156Z,59.47
2018-03-25T00:52:03.128Z,61.28
2018-03-25T00:52:37.037Z,57.83
2018-03-25T00:53:10.915Z,57.03
2018-03-25T00:53:44.926Z,60.22
2018-03-25T00:54:18.781Z,59.17
2018-03-25T00:54:52.925Z,58.75
2018-03-25T00:55:26.784Z,54.55
2018-03-25T00:56:00.735Z,56.33
2018-03-25T00:56:34.975Z,59.33
2018-03-25T00:57:08.796Z,60.35
2018-03-25T00:57:42.813Z,64.20
2018-03-25T00:58:16.664Z,55.65
2018-03-25T00:58:50.544Z,61.15
2018-03-25T00:59:24.497Z,62.33
2018-03-25T00:59:58.489Z,60.85
2018-03-25T01:00:32.345Z,60.67
2018-03-25T01:01:12.860Z,59.50
2018-03-25T01:01:46.761Z,58.60
2018-03-25T01:02:20.616Z,62.65
2018-03-25T01:02:54.481Z,55.75
2018-03-25T01:03:28.352Z,55.80
2018-03-25T01:04:02.231Z,60.12
2018-03-25T01:04:36.094Z,61.58
2018-03-25T01:05:10.005Z,61.63
2018-03-25T01:05:44.114Z,59.53
2018-03-25T01:06:17.974Z,57.03
2018-03-25T01:06:52.010Z,59.40
2018-03-25T01:07:25.875Z,56.78
2018-03-25T01:08:00.106Z,59.58
2018-03-25T01:08:33.985Z,61.40
2018-03-25T01:09:08.196Z,63.17
2018-03-25T01:09:42.111Z,56.20
2018-03-25T01:10:15.964Z,62.62
2018-03-25T01:10:49.827Z,59.13
2018-03-25T01:11:23.687Z,56.88
2018-03-25T01:11:57.695Z,60.63
2018-03-25T01:12:31.558Z,61.58
2018-03-25T01:13:05.429Z,61.13
2018-03-25T01:13:39.767Z,56.28
2018-03-25T01:14:13.625Z,63.55
2018-03-25T01:14:47.490Z,59.53
2018-03-25T01:15:21.369Z,56.75
2018-03-25T01:16:01.147Z,56.70
2018-03-25T01:16:35.058Z,55.10
2018-03-25T01:17:08.940Z,61.83
2018-03-25T01:17:42.992Z,61.13
2018-03-25T01:18:16.851Z,57.72
2018-03-25T01:18:50.865Z,55.20
2018-03-25T01:19:24.735Z,60.58
2018-03-25T01:19:58.601Z,56.30
2018-03-25T01:20:32.754Z,54.67
2018-03-25T01:21:06.721Z,55.85
2018-03-25T01:21:40.598Z,58.75
2018-03-25T01:22:14.558Z,59.25
2018-03-25T01:22:48.438Z,55.55
2018-03-25T01:23:22.494Z,54.08
2018-03-25T01:23:56.340Z,63.42
2018-03-25T01:24:30.241Z,58.97
2018-03-25T01:25:04.150Z,62.08
2018-03-25T01:25:38.033Z,59.38
2018-03-25T01:26:12.120Z,60.25
2018-03-25T01:26:45.977Z,68.03
2018-03-25T01:27:19.903Z,68.78
2018-03-25T01:27:53.769Z,70.75
2018-03-25T01:28:27.650Z,70.53
2018-03-25T01:29:01.507Z,69.65
2018-03-25T01:29:35.481Z,66.28
2018-03-25T01:30:09.347Z,70.35
2018-03-25T01:30:43.285Z,71.32
2018-03-25T01:31:17.162Z,67.60
2018-03-25T01:31:51.074Z,71.32
2018-03-25T01:32:25.075Z,73.62
2018-03-25T01:32:58.965Z,72.18
2018-03-25T01:33:33.068Z,63.03
2018-03-25T01:34:07.166Z,63.25
2018-03-25T01:34:41.061Z,74.97
2018-03-25T01:35:14.949Z,74.50
2018-03-25T01:35:48.966Z,72.37
2018-03-25T01:36:22.827Z,71.57
2018-03-25T01:36:56.710Z,76.20
2018-03-25T01:37:30.655Z,71.40
2018-03-25T01:38:04.509Z,70.80
2018-03-25T01:38:38.628Z,67.72
2018-03-25T01:39:12.489Z,71.80
2018-03-25T01:39:46.470Z,71.78
2018-03-25T01:40:20.627Z,67.55
2018-03-25T01:40:54.846Z,63.78
2018-03-25T01:41:28.716Z,68.00
2018-03-25T01:42:02.622Z,70.30
2018-03-25T01:42:36.505Z,71.28
2018-03-25T01:43:10.377Z,70.75
2018-03-25T01:43:44.248Z,66.68
2018-03-25T01:44:18.211Z,66.90
2018-03-25T01:44:52.086Z,62.00
2018-03-25T01:45:25.996Z,60.40
2018-03-25T01:46:00.010Z,72.70
2018-03-25T01:46:33.994Z,65.55
2018-03-25T01:47:07.996Z,68.47
2018-03-25T01:47:41.997Z,64.50
2018-03-25T01:48:15.854Z,71.22
2018-03-25T01:48:49.989Z,69.90
2018-03-25T01:49:23.876Z,72.32
2018-03-25T01:49:57.746Z,78.87
2018-03-25T01:50:31.665Z,70.87
2018-03-25T01:51:05.662Z,69.95
2018-03-25T01:51:39.664Z,73.68
2018-03-25T01:52:13.662Z,67.68
2018-03-25T01:52:47.553Z,69.40
2018-03-25T01:53:21.539Z,74.70
2018-03-25T01:53:55.652Z,73.75
2018-03-25T01:54:29.641Z,67.12
2018-03-25T01:55:03.496Z,69.35
2018-03-25T01:55:37.577Z,70.82
2018-03-25T01:56:11.433Z,75.05
2018-03-25T01:56:45.452Z,67.32
2018-03-25T01:57:19.330Z,75.12
2018-03-25T01:57:53.229Z,71.18
2018-03-25T01:58:27.120Z,72.28
2018-03-25T01:59:00.990Z,71.20
2018-03-25T01:59:34.865Z,70.03
2018-03-25T02:00:08.803Z,67.00
2018-03-25T02:00:42.661Z,75.22
2018-03-25T02:01:16.538Z,70.00
2018-03-25T02:01:50.493Z,73.55
2018-03-25T02:02:24.386Z,75.45
2018-03-25T02:02:58.261Z,78.10
2018-03-25T02:03:32.390Z,76.30
2018-03-25T02:04:06.285Z,80.32
2018-03-25T02:04:40.170Z,80.20
2018-03-25T02:05:14.029Z,79.80
2018-03-25T02:05:48.064Z,77.25
2018-03-25T02:06:22.069Z,74.40
2018-03-25T02:06:55.932Z,71.32
2018-03-25T02:07:30.178Z,75.28
2018-03-25T02:08:04.058Z,71.95
2018-03-25T02:08:37.925Z,81.22
2018-03-25T02:09:11.954Z,71.82
2018-03-25T02:09:45.821Z,72.60
2018-03-25T02:10:19.745Z,72.15
2018-03-25T02:10:53.655Z,72.85
2018-03-25T02:11:27.498Z,72.32
2018-03-25T02:12:01.358Z,77.95
2018-03-25T02:12:35.225Z,78.53
2018-03-25T02:13:09.097Z,71.28
2018-03-25T02:13:43.113Z,82.88
2018-03-25T02:14:17.008Z,70.90
2018-03-25T02:14:50.866Z,73.75
2018-03-25T02:15:24.733Z,80.10
2018-03-25T02:15:58.607Z,156.63
2018-03-25T02:16:32.459Z,139.62
2018-03-25T02:17:06.322Z,129.38
2018-03-25T02:17:40.339Z,105.10
2018-03-25T02:18:14.214Z,84.13
2018-03-25T02:18:48.085Z,83.75
2018-03-25T02:19:21.963Z,76.20
2018-03-25T02:19:56.538Z,79.10
2018-03-25T02:20:30.618Z,77.55
2018-03-25T02:21:04.501Z,74.93
2018-03-25T02:21:38.987Z,84.95
2018-03-25T02:22:12.890Z,71.57
2018-03-25T02:22:47.435Z,77.78
2018-03-25T02:23:21.612Z,71.05
2018-03-25T02:23:55.464Z,76.75
2018-03-25T02:24:29.390Z,79.30
2018-03-25T02:25:03.314Z,77.82
2018-03-25T02:25:37.182Z,76.53
2018-03-25T02:26:11.060Z,75.03
2018-03-25T02:26:44.916Z,78.18
2018-03-25T02:27:18.779Z,71.62
2018-03-25T02:27:52.651Z,76.60
2018-03-25T02:28:26.549Z,73.72
2018-03-25T02:29:00.448Z,76.55
2018-03-25T02:29:34.297Z,76.85
2018-03-25T02:30:09.363Z,77.18
2018-03-25T02:30:44.233Z,75.70
2018-03-25T02:31:20.836Z,80.75
2018-03-25T02:31:56.539Z,77.30
2018-03-25T02:32:30.543Z,79.05
2018-03-25T02:33:04.467Z,74.60
2018-03-25T02:33:38.825Z,79.87
2018-03-25T02:34:13.352Z,77.57
2018-03-25T02:34:47.927Z,77.05
2018-03-25T02:35:22.206Z,76.45
2018-03-25T02:35:59.290Z,73.03
2018-03-25T02:36:33.730Z,80.75
2018-03-25T02:37:07.596Z,78.03
2018-03-25T02:37:42.762Z,80.22
2018-03-25T02:38:16.605Z,79.80
2018-03-25T02:38:50.503Z,75.87
2018-03-25T02:39:24.442Z,82.82
2018-03-25T02:39:58.249Z,70.50
2018-03-25T02:40:32.378Z,78.03
2018-03-25T02:41:06.472Z,80.25
2018-03-25T02:41:40.337Z,74.85
2018-03-25T02:42:14.224Z,81.00
2018-03-25T02:42:48.266Z,75.95
2018-03-25T02:43:22.137Z,78.22
2018-03-25T02:43:56.166Z,76.15
2018-03-25T02:44:30.217Z,69.45
2018-03-25T02:45:04.070Z,78.15
2018-03-25T02:45:37.934Z,77.15
2018-03-25T02:46:11.922Z,72.18
2018-03-25T02:46:45.785Z,78.60
2018-03-25T02:47:19.647Z,78.62
2018-03-25T02:47:53.641Z,73.30
2018-03-25T02:48:27.520Z,76.28
2018-03-25T02:49:01.529Z,82.22
2018-03-25T02:49:35.419Z,76.78
2018-03-25T02:50:09.275Z,76.03
2018-03-25T02:50:43.120Z,79.85
2018-03-25T02:51:17.002Z,79.85
2018-03-25T02:51:50.861Z,71.28
2018-03-25T02:52:24.735Z,81.35
2018-03-25T02:52:58.591Z,75.35
2018-03-25T02:53:32.467Z,79.70
2018-03-25T02:54:06.553Z,82.40
2018-03-25T02:54:40.457Z,80.32
2018-03-25T02:55:14.352Z,78.97
2018-03-25T02:55:48.208Z,77.00
2018-03-25T02:56:22.056Z,81.93
2018-03-25T02:56:55.982Z,78.85
2018-03-25T02:57:29.844Z,77.00
2018-03-25T02:58:03.905Z,79.97
2018-03-25T02:58:37.935Z,82.07
2018-03-25T02:59:11.838Z,74.07
2018-03-25T02:59:45.846Z,80.25
2018-03-25T03:00:19.720Z,82.00
2018-03-25T03:00:53.590Z,77.93
2018-03-25T03:01:27.525Z,80.65
2018-03-25T03:02:01.391Z,79.25
2018-03-25T03:02:35.268Z,82.25
2018-03-25T03:03:09.120Z,76.40
2018-03-25T03:03:42.980Z,79.18
2018-03-25T03:04:16.858Z,80.45
2018-03-25T03:04:50.714Z,80.47
2018-03-25T03:05:24.591Z,74.03
2018-03-25T03:05:58.481Z,85.25
2018-03-25T03:06:32.346Z,78.05
2018-03-25T03:07:06.223Z,79.65
2018-03-25T03:07:40.275Z,83.37
2018-03-25T03:08:14.692Z,79.70
2018-03-25T03:08:48.550Z,79.95
2018-03-25T03:09:22.457Z,83.62
2018-03-25T03:09:57.068Z,74.32
2018-03-25T03:10:31.071Z,76.85
2018-03-25T03:11:06.076Z,78.20
2018-03-25T03:11:41.217Z,76.07
2018-03-25T03:12:15.080Z,78.43
2018-03-25T03:12:48.978Z,79.53
2018-03-25T03:13:22.864Z,87.35
2018-03-25T03:13:56.809Z,77.85
2018-03-25T03:14:31.530Z,76.87
2018-03-25T03:15:05.395Z,81.03
2018-03-25T03:15:39.341Z,81.72
2018-03-25T03:16:13.319Z,82.07
2018-03-25T03:16:47.338Z,79.80
2018-03-25T03:17:21.199Z,76.97
2018-03-25T03:17:55.040Z,78.50
2018-03-25T03:18:29.287Z,78.35
2018-03-25T03:19:03.924Z,77.55
2018-03-25T03:19:37.927Z,75.32
2018-03-25T03:20:11.898Z,81.50
2018-03-25T03:20:45.745Z,88.85
2018-03-25T03:21:19.836Z,79.00
2018-03-25T03:21:53.712Z,80.80
2018-03-25T03:22:27.570Z,73.53
2018-03-25T03:23:01.501Z,79.87
2018-03-25T03:23:35.375Z,78.35
2018-03-25T03:24:09.274Z,77.50
2018-03-25T03:24:43.174Z,81.25
2018-03-25T03:25:17.042Z,79.15
2018-03-25T03:25:50.906Z,78.68
2018-03-25T03:26:25.063Z,74.82
2018-03-25T03:26:58.953Z,79.00
2018-03-25T03:27:32.801Z,87.65
2018-03-25T03:28:06.717Z,84.55
2018-03-25T03:28:40.591Z,85.00
2018-03-25T03:29:14.454Z,79.20
2018-03-25T03:29:48.337Z,83.03
2018-03-25T03:30:22.199Z,81.78
2018-03-25T03:30:56.060Z,86.07
2018-03-25T03:31:30.053Z,75.80
2018-03-25T03:32:04.043Z,79.03
2018-03-25T03:32:37.913Z,77.62
2018-03-25T03:33:11.780Z,77.60
2018-03-25T03:33:45.644Z,79.12
2018-03-25T03:34:19.705Z,81.82
2018-03-25T03:34:53.574Z,80.78
2018-03-25T03:35:27.424Z,88.70
2018-03-25T03:36:01.281Z,84.40
2018-03-25T03:36:35.176Z,78.35
2018-03-25T03:37:09.105Z,84.00
2018-03-25T03:37:42.970Z,74.12
2018-03-25T03:38:16.838Z,79.60
2018-03-25T03:38:50.707Z,81.05
2018-03-25T03:39:24.660Z,81.00
2018-03-25T03:39:58.548Z,77.70
2018-03-25T03:40:32.577Z,77.43
2018-03-25T03:41:06.642Z,77.72
2018-03-25T03:41:40.501Z,78.00
2018-03-25T03:42:14.639Z,80.10
2018-03-25T03:42:48.641Z,82.30
2018-03-25T03:43:22.648Z,81.15
2018-03-25T03:43:56.509Z,77.72
2018-03-25T03:44:30.378Z,83.85
2018-03-25T03:45:04.277Z,81.90
2018-03-25T03:45:38.142Z,83.95
2018-03-25T03:46:12.007Z,82.85
2018-03-25T03:46:45.870Z,75.28
2018-03-25T03:47:19.728Z,82.07
2018-03-25T03:47:53.696Z,75.97
2018-03-25T03:48:27.589Z,81.60
2018-03-25T03:49:01.454Z,87.75
2018-03-25T03:49:35.378Z,91.12
2018-03-25T03:50:09.398Z,76.82
2018-03-25T03:50:43.276Z,79.60
2018-03-25T03:51:17.350Z,79.90
2018-03-25T03:51:51.270Z,83.50
2018-03-25T03:52:25.158Z,85.28
2018-03-25T03:52:59.018Z,77.75
2018-03-25T03:53:32.931Z,79.03
2018-03-25T03:54:06.852Z,78.32
2018-03-25T03:54:40.744Z,82.00
2018-03-25T03:55:14.748Z,87.80
2018-03-25T03:55:48.603Z,82.28
2018-03-25T03:56:22.448Z,80.38
2018-03-25T03:56:56.304Z,76.30
2018-03-25T03:57:30.330Z,78.10
2018-03-25T03:58:04.189Z,74.30
2018-03-25T03:58:38.054Z,84.60
2018-03-25T03:59:11.923Z,71.35
2018-03-25T03:59:45.788Z,77.00
2018-03-25T04:00:19.699Z,73.25
2018-03-25T04:00:53.672Z,77.03
2018-03-25T04:01:27.515Z,76.82
2018-03-25T04:02:01.492Z,77.30
2018-03-25T04:02:35.389Z,83.45
2018-03-25T04:03:09.261Z,83.12
2018-03-25T04:03:43.389Z,81.63
2018-03-25T04:04:17.262Z,77.45
2018-03-25T04:04:51.128Z,75.22
2018-03-25T04:05:25.010Z,83.47
2018-03-25T04:05:59.060Z,75.22
2018-03-25T04:06:32.916Z,82.93
2018-03-25T04:07:06.867Z,78.70
2018-03-25T04:07:41.056Z,72.55
2018-03-25T04:08:14.909Z,77.57
2018-03-25T04:08:48.856Z,76.00
2018-03-25T04:09:23.045Z,72.93
2018-03-25T04:09:57.040Z,77.87
2018-03-25T04:10:30.917Z,74.95
2018-03-25T04:11:05.038Z,71.95
2018-03-25T04:11:38.899Z,77.20
2018-03-25T04:12:12.829Z,73.10
2018-03-25T04:12:46.839Z,72.60
2018-03-25T04:13:20.727Z,80.97
2018-03-25T04:13:54.593Z,70.35
2018-03-25T04:14:28.458Z,78.40
2018-03-25T04:15:02.411Z,71.12
2018-03-25T04:15:36.406Z,76.62
2018-03-25T04:16:10.295Z,82.40
2018-03-25T04:16:44.157Z,78.22
2018-03-25T04:17:18.428Z,73.62
2018-03-25T04:17:52.289Z,75.12
2018-03-25T04:18:26.158Z,76.85
2018-03-25T04:19:00.016Z,84.25
2018-03-25T04:19:33.982Z,75.85
2018-03-25T04:20:07.849Z,77.12
2018-03-25T04:20:41.734Z,76.00
2018-03-25T04:21:15.675Z,79.85
2018-03-25T04:21:49.544Z,71.22
2018-03-25T04:22:23.609Z,80.12
2018-03-25T04:22:57.483Z,69.97
2018-03-25T04:23:31.341Z,75.87
2018-03-25T04:24:05.214Z,80.38
2018-03-25T04:24:39.139Z,66.72
2018-03-25T04:25:12.994Z,77.32
2018-03-25T04:25:47.145Z,77.87
2018-03-25T04:26:21.238Z,72.28
2018-03-25T04:26:55.386Z,72.85
2018-03-25T04:27:29.258Z,75.78
2018-03-25T04:28:03.127Z,78.55
2018-03-25T04:28:37.093Z,73.53
2018-03-25T04:29:10.956Z,70.43
2018-03-25T04:29:45.033Z,74.55
2018-03-25T04:30:18.919Z,69.60
2018-03-25T04:30:52.817Z,71.45
2018-03-25T04:31:26.680Z,85.65
2018-03-25T04:32:00.551Z,79.30
2018-03-25T04:32:34.412Z,74.05
2018-03-25T04:33:08.503Z,74.22
2018-03-25T04:33:42.373Z,76.70
2018-03-25T04:34:16.497Z,80.72
2018-03-25T04:34:50.386Z,71.05
2018-03-25T04:35:24.391Z,69.95
2018-03-25T04:35:58.298Z,77.10
2018-03-25T04:36:32.166Z,72.87
2018-03-25T04:37:06.018Z,71.60
2018-03-25T04:37:39.903Z,77.28
2018-03-25T04:38:13.774Z,77.65
2018-03-25T04:38:47.653Z,72.22
2018-03-25T04:39:21.524Z,81.95
2018-03-25T04:39:55.456Z,68.95
2018-03-25T04:40:29.304Z,71.87
2018-03-25T04:41:03.195Z,66.85
2018-03-25T04:41:37.104Z,75.62
2018-03-25T04:42:10.966Z,75.90
2018-03-25T04:42:44.830Z,68.80
2018-03-25T04:43:18.703Z,72.03
2018-03-25T04:43:52.558Z,68.40
2018-03-25T04:44:26.442Z,73.40
2018-03-25T04:45:00.500Z,68.45
2018-03-25T04:45:34.361Z,74.20
2018-03-25T04:46:08.271Z,71.10
2018-03-25T04:46:42.198Z,71.25
2018-03-25T04:47:16.081Z,77.50
2018-03-25T04:47:50.178Z,68.35
2018-03-25T04:48:24.042Z,68.53
2018-03-25T04:48:57.974Z,71.45
2018-03-25T04:49:31.834Z,74.37
2018-03-25T04:50:05.694Z,70.95
2018-03-25T04:50:39.565Z,74.68
2018-03-25T04:51:13.478Z,78.60
2018-03-25T04:51:47.333Z,74.60
2018-03-25T04:52:21.388Z,71.50
2018-03-25T04:52:55.289Z,69.78
2018-03-25T04:53:29.158Z,76.05
2018-03-25T04:54:03.081Z,68.05
2018-03-25T04:54:36.942Z,71.72
2018-03-25T04:55:10.929Z,70.30
2018-03-25T04:55:44.794Z,71.12
2018-03-25T04:56:18.829Z,64.37
2018-03-25T04:56:52.870Z,76.40
2018-03-25T04:57:26.737Z,70.53
2018-03-25T04:58:00.909Z,73.37
2018-03-25T04:58:34.777Z,73.05
2018-03-25T04:59:08.708Z,76.30
2018-03-25T04:59:43.003Z,72.10
2018-03-25T05:00:16.866Z,75.07
2018-03-25T05:00:50.745Z,72.93
2018-03-25T05:01:24.633Z,77.35
2018-03-25T05:01:58.511Z,70.12
2018-03-25T05:02:32.637Z,78.80
2018-03-25T05:03:06.488Z,70.28
2018-03-25T05:03:40.370Z,74.65
2018-03-25T05:04:14.233Z,69.47
2018-03-25T05:04:48.144Z,73.85
2018-03-25T05:05:22.008Z,75.60
2018-03-25T05:05:55.960Z,71.35
2018-03-25T05:06:29.952Z,70.40
2018-03-25T05:07:03.821Z,69.55
2018-03-25T05:07:37.680Z,76.62
2018-03-25T05:08:11.527Z,74.40
2018-03-25T05:08:45.388Z,81.50
2018-03-25T05:09:19.257Z,71.93
2018-03-25T05:09:53.119Z,69.22
2018-03-25T05:10:26.978Z,68.35
2018-03-25T05:11:00.867Z,74.93
2018-03-25T05:11:34.741Z,78.03
2018-03-25T05:12:08.710Z,77.72
2018-03-25T05:12:42.705Z,79.18
2018-03-25T05:13:16.572Z,79.57
2018-03-25T05:13:50.433Z,79.97
2018-03-25T05:14:24.302Z,71.65
2018-03-25T05:14:58.169Z,79.62
2018-03-25T05:15:32.090Z,69.87
2018-03-25T05:16:05.966Z,79.90
2018-03-25T05:16:40.067Z,72.90
2018-03-25T05:17:13.928Z,81.53
2018-03-25T05:17:48.268Z,80.30
2018-03-25T05:18:22.134Z,78.40
2018-03-25T05:18:55.998Z,84.03
2018-03-25T05:19:29.956Z,77.22
2018-03-25T05:20:03.826Z,78.50
2018-03-25T05:20:37.749Z,79.57
2018-03-25T05:21:11.640Z,80.50
2018-03-25T05:21:45.517Z,77.28
2018-03-25T05:22:19.377Z,78.43
2018-03-25T05:22:53.241Z,74.82
2018-03-25T05:23:27.107Z,78.10
2018-03-25T05:24:01.219Z,82.20
2018-03-25T05:24:35.079Z,74.45
2018-03-25T05:25:08.992Z,81.18
2018-03-25T05:25:43.008Z,79.53
2018-03-25T05:26:16.872Z,73.00
2018-03-25T05:26:50.809Z,69.78
2018-03-25T05:27:24.702Z,85.35
2018-03-25T05:27:58.615Z,81.07
2018-03-25T05:28:32.447Z,84.15
2018-03-25T05:29:06.579Z,81.32
2018-03-25T05:29:40.683Z,76.03
2018-03-25T05:30:14.661Z,73.12
2018-03-25T05:30:48.512Z,77.45
2018-03-25T05:31:22.678Z,74.22
2018-03-25T05:31:56.578Z,72.60
2018-03-25T05:32:30.444Z,79.62
2018-03-25T05:33:04.311Z,79.97
2018-03-25T05:33:38.197Z,79.25
2018-03-25T05:34:12.097Z,78.47
2018-03-25T05:34:45.965Z,73.72
2018-03-25T05:35:19.818Z,73.20
2018-03-25T05:35:53.943Z,68.10
2018-03-25T05:36:27.840Z,79.12
2018-03-25T05:37:01.731Z,75.60
2018-03-25T05:37:35.641Z,76.53
2018-03-25T05:38:09.728Z,79.35
2018-03-25T05:38:43.725Z,78.60
2018-03-25T05:39:17.582Z,79.68
2018-03-25T05:39:51.722Z,83.32
2018-03-25T05:40:25.584Z,78.72
2018-03-25T05:40:59.455Z,81.32
2018-03-25T05:41:33.328Z,80.35
2018-03-25T05:42:07.201Z,78.53
2018-03-25T05:42:41.081Z,73.60
2018-03-25T05:43:15.092Z,82.43
2018-03-25T05:43:48.944Z,75.93
2018-03-25T05:44:22.882Z,80.70
2018-03-25T05:44:56.740Z,77.68
2018-03-25T05:45:30.987Z,77.85
2018-03-25T05:46:04.941Z,86.12
2018-03-25T05:46:39.049Z,81.57
2018-03-25T05:47:13.000Z,71.80
2018-03-25T05:47:46.829Z,71.72
2018-03-25T05:48:20.762Z,77.93
2018-03-25T05:48:54.611Z,71.20
2018-03-25T05:49:28.572Z,73.12
2018-03-25T05:50:02.449Z,82.43
2018-03-25T05:50:36.360Z,76.82
2018-03-25T05:51:10.240Z,84.03
2018-03-25T05:51:44.094Z,79.50
2018-03-25T05:52:17.983Z,81.47
2018-03-25T05:52:52.028Z,76.65
2018-03-25T05:53:26.037Z,77.65
2018-03-25T05:53:59.918Z,71.22
2018-03-25T05:54:33.928Z,79.32
2018-03-25T05:55:07.807Z,75.43
2018-03-25T05:55:41.661Z,74.20
2018-03-25T05:56:15.664Z,75.82
2018-03-25T05:56:49.544Z,80.72
2018-03-25T05:57:23.390Z,73.12
2018-03-25T05:57:57.293Z,78.37
2018-03-25T05:58:31.147Z,73.78
2018-03-25T05:59:05.002Z,76.40
2018-03-25T05:59:38.981Z,77.95
2018-03-25T06:00:12.977Z,70.03
2018-03-25T06:00:46.882Z,77.65
2018-03-25T06:01:20.764Z,74.03
2018-03-25T06:01:54.978Z,77.28
2018-03-25T06:02:28.878Z,75.62
2018-03-25T06:03:02.758Z,78.07
2018-03-25T06:03:36.761Z,82.40
2018-03-25T06:04:10.630Z,85.57
2018-03-25T06:04:44.654Z,71.97
2018-03-25T06:05:18.509Z,74.12
2018-03-25T06:05:52.352Z,75.25
2018-03-25T06:06:26.231Z,71.97
2018-03-25T06:07:00.088Z,77.90
2018-03-25T06:07:33.983Z,80.40
2018-03-25T06:08:07.956Z,73.30
2018-03-25T06:08:41.825Z,71.03
2018-03-25T06:09:15.689Z,79.00
2018-03-25T06:09:49.557Z,76.93
2018-03-25T06:10:23.418Z,78.07
2018-03-25T06:10:57.397Z,76.60
2018-03-25T06:11:31.809Z,71.05
2018-03-25T06:12:05.705Z,69.20
2018-03-25T06:12:39.580Z,72.62
2018-03-25T06:13:13.456Z,71.03
2018-03-25T06:13:47.383Z,68.12
2018-03-25T06:14:21.277Z,74.95
2018-03-25T06:14:55.138Z,68.45
2018-03-25T06:15:29.172Z,75.40
2018-03-25T06:16:03.043Z,74.12
2018-03-25T06:16:37.071Z,68.40
2018-03-25T06:17:10.948Z,76.97
2018-03-25T06:17:45.064Z,77.18
2018-03-25T06:18:18.922Z,77.93
2018-03-25T06:18:52.860Z,75.82
2018-03-25T06:19:26.734Z,67.55
2018-03-25T06:20:00.747Z,66.53
2018-03-25T06:20:34.614Z,67.15
2018-03-25T06:21:08.532Z,73.03
2018-03-25T06:21:42.509Z,80.53
2018-03-25T06:22:16.489Z,68.50
2018-03-25T06:22:50.379Z,68.32
2018-03-25T06:23:24.275Z,66.10
2018-03-25T06:23:58.130Z,74.75
2018-03-25T06:24:32.006Z,70.70
2018-03-25T06:25:05.869Z,69.57
2018-03-25T06:25:39.748Z,71.55
2018-03-25T06:26:13.737Z,72.65
2018-03-25T06:26:47.601Z,70.97
2018-03-25T06:27:21.479Z,71.15
2018-03-25T06:27:55.366Z,70.65
2018-03-25T06:28:29.237Z,67.57
2018-03-25T06:29:03.434Z,71.20
2018-03-25T06:29:37.261Z,75.47
2018-03-25T06:30:11.156Z,72.78
2018-03-25T06:30:45.369Z,71.20
2018-03-25T06:31:19.244Z,74.70
2018-03-25T06:31:53.104Z,73.78
2018-03-25T06:32:26.966Z,71.12
2018-03-25T06:33:00.855Z,73.82
2018-03-25T06:33:34.741Z,71.53
2018-03-25T06:34:08.743Z,70.28
2018-03-25T06:34:42.611Z,67.28
2018-03-25T06:35:16.465Z,65.90
2018-03-25T06:35:50.428Z,72.97
2018-03-25T06:36:24.433Z,71.15
2018-03-25T06:36:58.285Z,78.47
2018-03-25T06:37:32.137Z,70.20
2018-03-25T06:38:06.028Z,67.65
2018-03-25T06:38:39.904Z,73.47
2018-03-25T06:39:13.765Z,68.65
2018-03-25T06:39:47.618Z,75.95
2018-03-25T06:40:21.593Z,74.43
2018-03-25T06:40:55.457Z,70.03
2018-03-25T06:41:29.341Z,73.78
2018-03-25T06:42:03.478Z,68.85
2018-03-25T06:42:37.373Z,66.95
2018-03-25T06:43:11.248Z,68.00
2018-03-25T06:43:45.373Z,71.35
2018-03-25T06:44:19.370Z,69.20
2018-03-25T06:44:53.239Z,61.25
2018-03-25T06:45:27.164Z,63.35
2018-03-25T06:46:01.036Z,65.57
2018-03-25T06:46:34.968Z,64.07
2018-03-25T06:47:08.889Z,60.50
2018-03-25T06:47:42.812Z,63.87
2018-03-25T06:48:16.943Z,68.43
2018-03-25T06:48:50.794Z,63.85
2018-03-25T06:49:24.744Z,75.65
2018-03-25T06:49:58.627Z,66.45
2018-03-25T06:50:32.615Z,62.67
2018-03-25T06:51:06.494Z,68.87
2018-03-25T06:51:40.532Z,68.07
2018-03-25T06:52:15.010Z,69.37
2018-03-25T06:52:49.038Z,61.35
2018-03-25T06:53:22.970Z,61.55
2018-03-25T06:53:56.833Z,66.65
2018-03-25T06:54:30.766Z,67.05
2018-03-25T06:55:04.845Z,68.45
2018-03-25T06:55:38.758Z,67.37
2018-03-25T06:56:12.633Z,69.78
2018-03-25T06:56:46.568Z,65.40
2018-03-25T06:57:20.653Z,59.17
2018-03-25T06:57:54.521Z,65.30
2018-03-25T06:58:28.403Z,66.85
2018-03-25T06:59:02.274Z,68.43
2018-03-25T06:59:36.179Z,62.92
2018-03-25T07:00:10.189Z,66.00
2018-03-25T07:00:44.076Z,60.30
2018-03-25T07:01:17.965Z,66.93
2018-03-25T07:01:51.832Z,72.00
2018-03-25T07:02:25.760Z,61.75
2018-03-25T07:02:59.616Z,63.60
2018-03-25T07:03:33.501Z,60.83
2018-03-25T07:04:07.360Z,69.12
2018-03-25T07:04:41.545Z,62.10
2018-03-25T07:05:15.412Z,60.22
2018-03-25T07:05:49.439Z,61.15
2018-03-25T07:06:23.340Z,62.72
2018-03-25T07:06:57.319Z,64.22
2018-03-25T07:07:31.318Z,64.25
2018-03-25T07:08:05.193Z,59.67
2018-03-25T07:08:39.121Z,65.50
2018-03-25T07:09:13.423Z,64.78
2018-03-25T07:09:47.431Z,61.97
2018-03-25T07:10:21.284Z,60.72
2018-03-25T07:10:55.182Z,58.87
2018-03-25T07:11:29.153Z,62.15
2018-03-25T07:12:03.162Z,60.85
2018-03-25T07:12:37.127Z,57.28
2018-03-25T07:13:11.370Z,63.20
2018-03-25T07:13:45.261Z,64.12
2018-03-25T07:14:19.150Z,57.85
2018-03-25T07:14:53.334Z,55.83
2018-03-25T07:15:27.309Z,64.72
2018-03-25T07:16:01.171Z,58.90
2018-03-25T07:16:35.203Z,59.92
2018-03-25T07:17:09.181Z,62.60
2018-03-25T07:17:43.153Z,55.03